sensor_id;sensor_type;location;lat;lon;timestamp;temperature;humidity
22145;DHT22;11238;48.730;11.566;2023-12-22T00:01:30;4.20;99.90
22145;DHT22;11238;48.730;11.566;2023-12-22T00:04:17;4.10;99.90
22145;DHT22;11238;48.730;11.566;2023-12-22T00:06:43;4.10;99.90
22145;DHT22;11238;48.730;11.566;2023-12-22T00:09:09;4.00;99.90
22145;DHT22;11238;48.730;11.566;2023-12-22T00:11:35;4.00;99.90
22145;DHT22;11238;48.730;11.566;2023-12-22T00:14:01;3.90;99.90
22145;DHT22;11238;48.730;11.566;2023-12-22T00:16:27;3.90;99.90
22145;DHT22;11238;48.730;11.566;2023-12-22T00:18:52;3.80;99.90
22145;DHT22;11238;48.730;11.566;2023-12-22T00:21:19;3.80;99.90
22145;DHT22;11238;48.730;11.566;2023-12-22T00:23:45;3.80;99.90
22145;DHT22;11238;48.730;11.566;2023-12-22T00:26:11;3.70;99.90
22145;DHT22;11238;48.730;11.566;2023-12-22T00:28:37;3.80;99.90
22145;DHT22;11238;48.730;11.566;2023-12-22T00:31:03;3.70;99.90
22145;DHT22;11238;48.730;11.566;2023-12-22T00:33:29;3.70;99.90
22145;DHT22;11238;48.730;11.566;2023-12-22T00:35:55;3.70;99.90
22145;DHT22;11238;48.730;11.566;2023-12-22T00:38:20;3.70;99.90
22145;DHT22;11238;48.730;11.566;2023-12-22T00:40:46;3.70;99.90
22145;DHT22;11238;48.730;11.566;2023-12-22T00:43:12;3.70;99.90
22145;DHT22;11238;48.730;11.566;2023-12-22T00:45:37;3.70;99.90
22145;DHT22;11238;48.730;11.566;2023-12-22T00:48:03;3.70;99.90
22145;DHT22;11238;48.730;11.566;2023-12-22T00:50:29;3.70;99.90
22145;DHT22;11238;48.730;11.566;2023-12-22T00:52:55;3.70;99.90
22145;DHT22;11238;48.730;11.566;2023-12-22T00:55:20;3.70;99.90
22145;DHT22;11238;48.730;11.566;2023-12-22T00:57:46;3.70;99.90
22145;DHT22;11238;48.730;11.566;2023-12-22T01:00:12;3.60;99.90
22145;DHT22;11238;48.730;11.566;2023-12-22T01:02:38;3.70;99.90
22145;DHT22;11238;48.730;11.566;2023-12-22T01:05:05;3.60;99.90
22145;DHT22;11238;48.730;11.566;2023-12-22T01:07:31;3.60;99.90
22145;DHT22;11238;48.730;11.566;2023-12-22T01:09:57;3.60;99.90
22145;DHT22;11238;48.730;11.566;2023-12-22T01:12:32;3.60;99.90
22145;DHT22;11238;48.730;11.566;2023-12-22T01:14:58;3.60;99.90
22145;DHT22;11238;48.730;11.566;2023-12-22T01:17:24;3.60;99.90
22145;DHT22;11238;48.730;11.566;2023-12-22T01:19:50;3.60;99.90
22145;DHT22;11238;48.730;11.566;2023-12-22T01:22:17;3.60;99.90
22145;DHT22;11238;48.730;11.566;2023-12-22T01:24:43;3.60;99.90
22145;DHT22;11238;48.730;11.566;2023-12-22T01:27:11;3.50;99.90
22145;DHT22;11238;48.730;11.566;2023-12-22T01:29:37;3.50;99.90
22145;DHT22;11238;48.730;11.566;2023-12-22T01:32:03;3.50;99.90
22145;DHT22;11238;48.730;11.566;2023-12-22T01:34:29;3.50;99.90
22145;DHT22;11238;48.730;11.566;2023-12-22T01:36:55;3.50;99.90
22145;DHT22;11238;48.730;11.566;2023-12-22T01:39:21;3.50;99.90
22145;DHT22;11238;48.730;11.566;2023-12-22T01:41:46;3.50;99.90
22145;DHT22;11238;48.730;11.566;2023-12-22T01:44:13;3.60;99.90
22145;DHT22;11238;48.730;11.566;2023-12-22T01:46:40;3.60;99.90
22145;DHT22;11238;48.730;11.566;2023-12-22T01:49:07;3.60;99.90
22145;DHT22;11238;48.730;11.566;2023-12-22T01:51:35;3.60;99.90
22145;DHT22;11238;48.730;11.566;2023-12-22T01:54:02;3.60;99.90
22145;DHT22;11238;48.730;11.566;2023-12-22T01:56:29;3.60;99.90
22145;DHT22;11238;48.730;11.566;2023-12-22T01:58:59;3.60;99.90
22145;DHT22;11238;48.730;11.566;2023-12-22T02:01:27;3.70;99.90
22145;DHT22;11238;48.730;11.566;2023-12-22T02:03:54;3.70;99.90
22145;DHT22;11238;48.730;11.566;2023-12-22T02:06:20;3.60;99.90
22145;DHT22;11238;48.730;11.566;2023-12-22T02:08:47;3.70;99.90
22145;DHT22;11238;48.730;11.566;2023-12-22T02:11:16;3.70;99.90
22145;DHT22;11238;48.730;11.566;2023-12-22T02:13:45;3.70;99.90
22145;DHT22;11238;48.730;11.566;2023-12-22T02:19:15;3.60;99.90
22145;DHT22;11238;48.730;11.566;2023-12-22T02:22:02;3.50;99.90
22145;DHT22;11238;48.730;11.566;2023-12-22T02:24:29;3.50;99.90
22145;DHT22;11238;48.730;11.566;2023-12-22T02:29:42;3.50;99.90
22145;DHT22;11238;48.730;11.566;2023-12-22T02:32:14;3.30;99.90
22145;DHT22;11238;48.730;11.566;2023-12-22T02:34:42;3.20;99.90
22145;DHT22;11238;48.730;11.566;2023-12-22T02:37:09;3.20;99.90
22145;DHT22;11238;48.730;11.566;2023-12-22T02:39:36;3.20;99.90
22145;DHT22;11238;48.730;11.566;2023-12-22T02:42:04;3.20;99.90
22145;DHT22;11238;48.730;11.566;2023-12-22T02:44:31;3.20;99.90
22145;DHT22;11238;48.730;11.566;2023-12-22T02:46:57;3.20;99.90
22145;DHT22;11238;48.730;11.566;2023-12-22T02:49:23;3.10;99.90
22145;DHT22;11238;48.730;11.566;2023-12-22T02:51:48;3.10;99.90
22145;DHT22;11238;48.730;11.566;2023-12-22T02:54:14;3.10;99.90
22145;DHT22;11238;48.730;11.566;2023-12-22T02:56:40;3.00;99.90
22145;DHT22;11238;48.730;11.566;2023-12-22T02:59:09;3.10;99.90
22145;DHT22;11238;48.730;11.566;2023-12-22T03:01:35;3.10;99.90
22145;DHT22;11238;48.730;11.566;2023-12-22T03:04:01;3.10;99.90
22145;DHT22;11238;48.730;11.566;2023-12-22T03:06:27;3.10;99.90
22145;DHT22;11238;48.730;11.566;2023-12-22T03:08:52;3.10;99.90
22145;DHT22;11238;48.730;11.566;2023-12-22T03:11:18;3.20;99.90
22145;DHT22;11238;48.730;11.566;2023-12-22T03:13:44;3.10;99.90
22145;DHT22;11238;48.730;11.566;2023-12-22T03:16:10;3.20;99.90
22145;DHT22;11238;48.730;11.566;2023-12-22T03:18:38;3.10;99.90
22145;DHT22;11238;48.730;11.566;2023-12-22T03:21:05;3.00;99.90
22145;DHT22;11238;48.730;11.566;2023-12-22T03:23:30;2.90;99.90
22145;DHT22;11238;48.730;11.566;2023-12-22T03:25:56;2.90;99.90
22145;DHT22;11238;48.730;11.566;2023-12-22T03:28:22;2.90;99.90
22145;DHT22;11238;48.730;11.566;2023-12-22T03:30:49;3.00;99.90
22145;DHT22;11238;48.730;11.566;2023-12-22T03:33:15;3.00;99.90
22145;DHT22;11238;48.730;11.566;2023-12-22T03:36:02;3.00;99.90
22145;DHT22;11238;48.730;11.566;2023-12-22T03:38:28;3.00;99.90
22145;DHT22;11238;48.730;11.566;2023-12-22T03:40:54;3.00;99.90
22145;DHT22;11238;48.730;11.566;2023-12-22T03:43:20;2.90;99.90
22145;DHT22;11238;48.730;11.566;2023-12-22T03:45:46;2.90;99.90
22145;DHT22;11238;48.730;11.566;2023-12-22T03:48:12;2.90;99.90
22145;DHT22;11238;48.730;11.566;2023-12-22T03:50:39;2.90;99.90
22145;DHT22;11238;48.730;11.566;2023-12-22T03:53:04;2.90;99.90
22145;DHT22;11238;48.730;11.566;2023-12-22T03:55:30;2.90;99.90
22145;DHT22;11238;48.730;11.566;2023-12-22T03:57:56;3.00;99.90
22145;DHT22;11238;48.730;11.566;2023-12-22T04:00:21;3.00;99.90
22145;DHT22;11238;48.730;11.566;2023-12-22T04:02:47;3.00;99.90
22145;DHT22;11238;48.730;11.566;2023-12-22T04:05:13;3.00;99.90
22145;DHT22;11238;48.730;11.566;2023-12-22T04:07:39;3.00;99.90
22145;DHT22;11238;48.730;11.566;2023-12-22T04:10:05;3.00;99.90
22145;DHT22;11238;48.730;11.566;2023-12-22T04:12:32;3.00;99.90
22145;DHT22;11238;48.730;11.566;2023-12-22T04:14:58;3.00;99.90
22145;DHT22;11238;48.730;11.566;2023-12-22T04:17:24;3.00;99.90
22145;DHT22;11238;48.730;11.566;2023-12-22T04:19:50;3.00;99.90
22145;DHT22;11238;48.730;11.566;2023-12-22T04:22:16;3.10;99.90
22145;DHT22;11238;48.730;11.566;2023-12-22T04:24:42;3.10;99.90
22145;DHT22;11238;48.730;11.566;2023-12-22T04:27:08;3.10;99.90
22145;DHT22;11238;48.730;11.566;2023-12-22T04:29:34;3.20;99.90
22145;DHT22;11238;48.730;11.566;2023-12-22T04:31:59;3.10;99.90
22145;DHT22;11238;48.730;11.566;2023-12-22T04:34:25;3.00;99.90
22145;DHT22;11238;48.730;11.566;2023-12-22T04:36:51;3.00;99.90
22145;DHT22;11238;48.730;11.566;2023-12-22T04:39:16;3.00;99.90
22145;DHT22;11238;48.730;11.566;2023-12-22T04:41:42;3.00;99.90
22145;DHT22;11238;48.730;11.566;2023-12-22T04:44:08;3.00;99.90
22145;DHT22;11238;48.730;11.566;2023-12-22T04:46:34;3.00;99.90
22145;DHT22;11238;48.730;11.566;2023-12-22T04:49:00;3.10;99.90
22145;DHT22;11238;48.730;11.566;2023-12-22T04:51:27;3.10;99.90
22145;DHT22;11238;48.730;11.566;2023-12-22T04:53:53;3.20;99.90
22145;DHT22;11238;48.730;11.566;2023-12-22T04:56:19;3.20;99.90
22145;DHT22;11238;48.730;11.566;2023-12-22T04:58:46;3.30;99.90
22145;DHT22;11238;48.730;11.566;2023-12-22T05:01:14;3.30;99.90
22145;DHT22;11238;48.730;11.566;2023-12-22T05:03:40;3.40;99.90
22145;DHT22;11238;48.730;11.566;2023-12-22T05:06:06;3.30;99.90
22145;DHT22;11238;48.730;11.566;2023-12-22T05:08:32;3.20;99.90
22145;DHT22;11238;48.730;11.566;2023-12-22T05:10:58;3.20;99.90
22145;DHT22;11238;48.730;11.566;2023-12-22T05:13:23;3.10;99.90
22145;DHT22;11238;48.730;11.566;2023-12-22T05:15:49;3.10;99.90
22145;DHT22;11238;48.730;11.566;2023-12-22T05:18:15;3.10;99.90
22145;DHT22;11238;48.730;11.566;2023-12-22T05:20:41;3.10;99.90
22145;DHT22;11238;48.730;11.566;2023-12-22T05:23:08;3.00;99.90
22145;DHT22;11238;48.730;11.566;2023-12-22T05:25:33;3.00;99.90
22145;DHT22;11238;48.730;11.566;2023-12-22T05:27:59;3.00;99.90
22145;DHT22;11238;48.730;11.566;2023-12-22T05:30:25;3.00;99.90
22145;DHT22;11238;48.730;11.566;2023-12-22T05:32:51;3.00;99.90
22145;DHT22;11238;48.730;11.566;2023-12-22T05:35:18;2.90;99.90
22145;DHT22;11238;48.730;11.566;2023-12-22T05:37:43;2.90;99.90
22145;DHT22;11238;48.730;11.566;2023-12-22T05:40:09;3.00;99.90
22145;DHT22;11238;48.730;11.566;2023-12-22T05:42:37;3.00;99.90
22145;DHT22;11238;48.730;11.566;2023-12-22T05:45:04;3.00;99.90
22145;DHT22;11238;48.730;11.566;2023-12-22T05:47:30;3.00;99.90
22145;DHT22;11238;48.730;11.566;2023-12-22T05:50:17;3.00;99.90
22145;DHT22;11238;48.730;11.566;2023-12-22T05:52:43;3.00;99.90
22145;DHT22;11238;48.730;11.566;2023-12-22T05:55:11;3.00;99.90
22145;DHT22;11238;48.730;11.566;2023-12-22T05:57:37;2.90;99.90
22145;DHT22;11238;48.730;11.566;2023-12-22T06:00:04;2.90;99.90
22145;DHT22;11238;48.730;11.566;2023-12-22T06:02:33;2.90;99.90
22145;DHT22;11238;48.730;11.566;2023-12-22T06:04:59;2.90;99.90
22145;DHT22;11238;48.730;11.566;2023-12-22T06:07:25;2.90;99.90
22145;DHT22;11238;48.730;11.566;2023-12-22T06:09:52;2.90;99.90
22145;DHT22;11238;48.730;11.566;2023-12-22T06:12:17;3.00;99.90
22145;DHT22;11238;48.730;11.566;2023-12-22T06:14:44;3.10;99.90
22145;DHT22;11238;48.730;11.566;2023-12-22T06:17:10;3.20;99.90
22145;DHT22;11238;48.730;11.566;2023-12-22T06:19:36;3.30;99.90
22145;DHT22;11238;48.730;11.566;2023-12-22T06:22:02;3.40;99.90
22145;DHT22;11238;48.730;11.566;2023-12-22T06:24:28;3.50;99.90
22145;DHT22;11238;48.730;11.566;2023-12-22T06:26:54;3.50;99.90
22145;DHT22;11238;48.730;11.566;2023-12-22T06:29:21;3.60;99.90
22145;DHT22;11238;48.730;11.566;2023-12-22T06:31:46;3.60;99.90
22145;DHT22;11238;48.730;11.566;2023-12-22T06:34:18;3.70;99.90
22145;DHT22;11238;48.730;11.566;2023-12-22T06:36:45;3.70;99.90
22145;DHT22;11238;48.730;11.566;2023-12-22T06:39:12;3.80;99.90
22145;DHT22;11238;48.730;11.566;2023-12-22T06:41:37;3.80;99.90
22145;DHT22;11238;48.730;11.566;2023-12-22T06:44:25;3.80;99.90
22145;DHT22;11238;48.730;11.566;2023-12-22T06:46:52;3.90;99.90
22145;DHT22;11238;48.730;11.566;2023-12-22T06:49:18;3.90;99.90
22145;DHT22;11238;48.730;11.566;2023-12-22T06:51:44;3.90;99.90
22145;DHT22;11238;48.730;11.566;2023-12-22T06:54:11;4.00;99.90
22145;DHT22;11238;48.730;11.566;2023-12-22T06:56:37;4.10;99.90
22145;DHT22;11238;48.730;11.566;2023-12-22T06:59:03;4.20;99.90
22145;DHT22;11238;48.730;11.566;2023-12-22T07:01:31;4.20;99.90
22145;DHT22;11238;48.730;11.566;2023-12-22T07:03:57;4.20;99.90
22145;DHT22;11238;48.730;11.566;2023-12-22T07:06:26;4.10;99.90
22145;DHT22;11238;48.730;11.566;2023-12-22T07:11:37;4.00;99.90
22145;DHT22;11238;48.730;11.566;2023-12-22T07:14:05;3.90;99.90
22145;DHT22;11238;48.730;11.566;2023-12-22T07:16:32;3.90;99.90
22145;DHT22;11238;48.730;11.566;2023-12-22T07:19:01;3.90;99.90
22145;DHT22;11238;48.730;11.566;2023-12-22T07:21:27;3.90;99.90
22145;DHT22;11238;48.730;11.566;2023-12-22T07:23:53;4.00;99.90
22145;DHT22;11238;48.730;11.566;2023-12-22T07:26:19;4.10;99.90
22145;DHT22;11238;48.730;11.566;2023-12-22T07:28:47;4.00;99.90
22145;DHT22;11238;48.730;11.566;2023-12-22T07:31:14;4.10;99.90
22145;DHT22;11238;48.730;11.566;2023-12-22T07:33:41;4.10;99.90
22145;DHT22;11238;48.730;11.566;2023-12-22T07:36:07;4.10;99.90
22145;DHT22;11238;48.730;11.566;2023-12-22T07:38:35;4.00;99.90
22145;DHT22;11238;48.730;11.566;2023-12-22T07:41:02;4.10;99.90
22145;DHT22;11238;48.730;11.566;2023-12-22T07:43:28;4.10;99.90
22145;DHT22;11238;48.730;11.566;2023-12-22T07:45:55;4.10;99.90
22145;DHT22;11238;48.730;11.566;2023-12-22T07:48:21;4.10;99.90
22145;DHT22;11238;48.730;11.566;2023-12-22T07:50:47;4.10;99.90
22145;DHT22;11238;48.730;11.566;2023-12-22T07:53:13;4.10;99.90
22145;DHT22;11238;48.730;11.566;2023-12-22T07:55:40;4.10;99.90
22145;DHT22;11238;48.730;11.566;2023-12-22T07:58:07;4.10;99.90
22145;DHT22;11238;48.730;11.566;2023-12-22T08:00:36;4.20;99.90
22145;DHT22;11238;48.730;11.566;2023-12-22T08:03:02;4.20;99.90
22145;DHT22;11238;48.730;11.566;2023-12-22T08:05:30;4.20;99.90
22145;DHT22;11238;48.730;11.566;2023-12-22T08:07:56;4.10;99.90
22145;DHT22;11238;48.730;11.566;2023-12-22T08:10:43;4.10;99.90
22145;DHT22;11238;48.730;11.566;2023-12-22T08:13:09;4.10;99.90
22145;DHT22;11238;48.730;11.566;2023-12-22T08:15:35;4.10;99.90
22145;DHT22;11238;48.730;11.566;2023-12-22T08:18:01;4.20;99.90
22145;DHT22;11238;48.730;11.566;2023-12-22T08:20:48;4.10;99.90
22145;DHT22;11238;48.730;11.566;2023-12-22T08:23:15;4.20;99.90
22145;DHT22;11238;48.730;11.566;2023-12-22T08:25:40;4.20;99.90
22145;DHT22;11238;48.730;11.566;2023-12-22T08:28:07;4.20;99.90
22145;DHT22;11238;48.730;11.566;2023-12-22T08:30:32;4.20;99.90
22145;DHT22;11238;48.730;11.566;2023-12-22T08:33:00;4.10;99.90
22145;DHT22;11238;48.730;11.566;2023-12-22T08:35:26;4.10;99.90
22145;DHT22;11238;48.730;11.566;2023-12-22T08:37:52;4.00;99.90
22145;DHT22;11238;48.730;11.566;2023-12-22T08:40:18;4.00;99.90
22145;DHT22;11238;48.730;11.566;2023-12-22T08:42:50;4.00;99.90
22145;DHT22;11238;48.730;11.566;2023-12-22T08:45:16;4.10;99.90
22145;DHT22;11238;48.730;11.566;2023-12-22T08:47:42;4.10;99.90
22145;DHT22;11238;48.730;11.566;2023-12-22T08:50:08;4.00;99.90
22145;DHT22;11238;48.730;11.566;2023-12-22T08:52:35;4.00;99.90
22145;DHT22;11238;48.730;11.566;2023-12-22T08:55:03;3.90;99.90
22145;DHT22;11238;48.730;11.566;2023-12-22T08:57:31;3.90;99.90
22145;DHT22;11238;48.730;11.566;2023-12-22T08:59:57;4.00;99.90
22145;DHT22;11238;48.730;11.566;2023-12-22T09:02:23;4.00;99.90
22145;DHT22;11238;48.730;11.566;2023-12-22T09:04:49;4.10;99.90
22145;DHT22;11238;48.730;11.566;2023-12-22T09:07:14;4.20;99.90
22145;DHT22;11238;48.730;11.566;2023-12-22T09:09:40;4.30;99.90
22145;DHT22;11238;48.730;11.566;2023-12-22T09:12:06;4.40;99.90
22145;DHT22;11238;48.730;11.566;2023-12-22T09:14:32;4.50;99.90
22145;DHT22;11238;48.730;11.566;2023-12-22T09:16:58;4.60;99.90
22145;DHT22;11238;48.730;11.566;2023-12-22T09:19:24;4.70;99.90
22145;DHT22;11238;48.730;11.566;2023-12-22T09:21:49;4.70;99.90
22145;DHT22;11238;48.730;11.566;2023-12-22T09:24:16;4.70;99.90
22145;DHT22;11238;48.730;11.566;2023-12-22T09:26:42;4.80;99.90
22145;DHT22;11238;48.730;11.566;2023-12-22T09:29:08;4.80;99.90
22145;DHT22;11238;48.730;11.566;2023-12-22T09:31:34;4.90;99.90
22145;DHT22;11238;48.730;11.566;2023-12-22T09:34:00;5.00;99.90
22145;DHT22;11238;48.730;11.566;2023-12-22T09:36:26;5.00;99.90
22145;DHT22;11238;48.730;11.566;2023-12-22T09:38:52;5.10;99.90
22145;DHT22;11238;48.730;11.566;2023-12-22T09:41:18;5.10;99.90
22145;DHT22;11238;48.730;11.566;2023-12-22T09:43:47;5.00;99.90
22145;DHT22;11238;48.730;11.566;2023-12-22T09:46:20;5.10;99.90
22145;DHT22;11238;48.730;11.566;2023-12-22T09:48:49;5.00;99.90
22145;DHT22;11238;48.730;11.566;2023-12-22T09:51:15;5.00;99.90
22145;DHT22;11238;48.730;11.566;2023-12-22T09:53:44;5.00;99.90
22145;DHT22;11238;48.730;11.566;2023-12-22T09:56:11;5.00;99.90
22145;DHT22;11238;48.730;11.566;2023-12-22T09:58:37;5.10;99.90
22145;DHT22;11238;48.730;11.566;2023-12-22T10:01:05;5.10;99.90
22145;DHT22;11238;48.730;11.566;2023-12-22T10:03:33;5.20;99.90
22145;DHT22;11238;48.730;11.566;2023-12-22T10:05:59;5.20;99.90
22145;DHT22;11238;48.730;11.566;2023-12-22T10:08:26;5.20;99.90
22145;DHT22;11238;48.730;11.566;2023-12-22T10:10:52;5.30;99.90
22145;DHT22;11238;48.730;11.566;2023-12-22T10:13:19;5.30;99.90
22145;DHT22;11238;48.730;11.566;2023-12-22T10:15:45;5.30;99.90
22145;DHT22;11238;48.730;11.566;2023-12-22T10:18:12;5.30;99.90
22145;DHT22;11238;48.730;11.566;2023-12-22T10:20:39;5.40;99.90
22145;DHT22;11238;48.730;11.566;2023-12-22T10:23:05;5.40;99.90
22145;DHT22;11238;48.730;11.566;2023-12-22T10:25:31;5.50;99.90
22145;DHT22;11238;48.730;11.566;2023-12-22T10:27:58;5.50;99.90
22145;DHT22;11238;48.730;11.566;2023-12-22T10:30:24;5.60;99.90
22145;DHT22;11238;48.730;11.566;2023-12-22T10:32:53;5.70;99.90
22145;DHT22;11238;48.730;11.566;2023-12-22T10:35:22;5.80;99.90
22145;DHT22;11238;48.730;11.566;2023-12-22T10:37:48;5.80;99.90
22145;DHT22;11238;48.730;11.566;2023-12-22T10:40:18;5.80;99.90
22145;DHT22;11238;48.730;11.566;2023-12-22T10:42:44;5.90;99.90
22145;DHT22;11238;48.730;11.566;2023-12-22T10:45:09;6.10;99.90
22145;DHT22;11238;48.730;11.566;2023-12-22T10:47:35;6.10;99.90
22145;DHT22;11238;48.730;11.566;2023-12-22T10:50:03;6.10;99.90
22145;DHT22;11238;48.730;11.566;2023-12-22T10:52:32;6.30;99.90
22145;DHT22;11238;48.730;11.566;2023-12-22T10:54:58;6.30;99.90
22145;DHT22;11238;48.730;11.566;2023-12-22T10:57:24;6.40;99.90
22145;DHT22;11238;48.730;11.566;2023-12-22T10:59:51;6.50;99.90
22145;DHT22;11238;48.730;11.566;2023-12-22T11:02:18;6.50;99.90
22145;DHT22;11238;48.730;11.566;2023-12-22T11:05:01;6.40;99.90
22145;DHT22;11238;48.730;11.566;2023-12-22T11:07:28;6.30;99.90
22145;DHT22;11238;48.730;11.566;2023-12-22T11:09:56;6.20;99.90
22145;DHT22;11238;48.730;11.566;2023-12-22T11:12:23;5.80;99.90
22145;DHT22;11238;48.730;11.566;2023-12-22T11:14:52;5.70;99.90
22145;DHT22;11238;48.730;11.566;2023-12-22T11:17:22;5.60;99.90
22145;DHT22;11238;48.730;11.566;2023-12-22T11:19:49;5.40;99.90
22145;DHT22;11238;48.730;11.566;2023-12-22T11:22:19;5.30;99.90
22145;DHT22;11238;48.730;11.566;2023-12-22T11:24:49;5.30;99.90
22145;DHT22;11238;48.730;11.566;2023-12-22T11:27:19;5.30;99.90
22145;DHT22;11238;48.730;11.566;2023-12-22T11:29:49;5.30;99.90
22145;DHT22;11238;48.730;11.566;2023-12-22T11:32:16;5.30;99.90
22145;DHT22;11238;48.730;11.566;2023-12-22T11:34:44;5.20;99.90
22145;DHT22;11238;48.730;11.566;2023-12-22T11:37:11;5.20;99.90
22145;DHT22;11238;48.730;11.566;2023-12-22T11:39:39;5.30;99.90
22145;DHT22;11238;48.730;11.566;2023-12-22T11:42:08;5.30;99.90
22145;DHT22;11238;48.730;11.566;2023-12-22T11:44:35;5.20;99.90
22145;DHT22;11238;48.730;11.566;2023-12-22T11:47:06;5.30;99.90
22145;DHT22;11238;48.730;11.566;2023-12-22T11:49:33;5.30;99.90
22145;DHT22;11238;48.730;11.566;2023-12-22T11:52:08;5.30;99.90
22145;DHT22;11238;48.730;11.566;2023-12-22T11:54:47;5.30;99.90
22145;DHT22;11238;48.730;11.566;2023-12-22T11:59:57;5.40;99.90
22145;DHT22;11238;48.730;11.566;2023-12-22T12:02:23;5.40;99.90
22145;DHT22;11238;48.730;11.566;2023-12-22T12:04:50;5.50;99.90
22145;DHT22;11238;48.730;11.566;2023-12-22T12:10:36;5.60;99.90
22145;DHT22;11238;48.730;11.566;2023-12-22T12:13:09;5.70;99.90
22145;DHT22;11238;48.730;11.566;2023-12-22T12:15:35;5.80;99.90
22145;DHT22;11238;48.730;11.566;2023-12-22T12:18:02;5.80;99.90
22145;DHT22;11238;48.730;11.566;2023-12-22T12:20:28;5.90;99.90
22145;DHT22;11238;48.730;11.566;2023-12-22T12:22:54;6.00;99.90
22145;DHT22;11238;48.730;11.566;2023-12-22T12:25:23;6.10;99.90
22145;DHT22;11238;48.730;11.566;2023-12-22T12:30:28;6.10;99.90
22145;DHT22;11238;48.730;11.566;2023-12-22T12:32:54;6.20;99.90
22145;DHT22;11238;48.730;11.566;2023-12-22T12:35:24;6.30;99.90
22145;DHT22;11238;48.730;11.566;2023-12-22T12:37:51;6.30;99.90
22145;DHT22;11238;48.730;11.566;2023-12-22T12:40:19;6.30;99.90
22145;DHT22;11238;48.730;11.566;2023-12-22T12:42:46;6.50;99.90
22145;DHT22;11238;48.730;11.566;2023-12-22T12:45:12;6.40;99.90
22145;DHT22;11238;48.730;11.566;2023-12-22T12:47:37;6.50;99.90
22145;DHT22;11238;48.730;11.566;2023-12-22T12:50:03;6.40;99.90
22145;DHT22;11238;48.730;11.566;2023-12-22T12:52:29;6.40;99.90
22145;DHT22;11238;48.730;11.566;2023-12-22T12:54:55;6.40;99.90
22145;DHT22;11238;48.730;11.566;2023-12-22T12:57:21;6.40;99.90
22145;DHT22;11238;48.730;11.566;2023-12-22T12:59:48;6.50;99.90
22145;DHT22;11238;48.730;11.566;2023-12-22T13:02:16;6.40;99.90
22145;DHT22;11238;48.730;11.566;2023-12-22T13:04:42;6.40;99.90
22145;DHT22;11238;48.730;11.566;2023-12-22T13:07:08;6.30;99.90
22145;DHT22;11238;48.730;11.566;2023-12-22T13:09:36;6.30;99.90
22145;DHT22;11238;48.730;11.566;2023-12-22T13:12:03;6.30;99.90
22145;DHT22;11238;48.730;11.566;2023-12-22T13:14:28;6.30;99.90
22145;DHT22;11238;48.730;11.566;2023-12-22T13:16:55;6.30;99.90
22145;DHT22;11238;48.730;11.566;2023-12-22T13:19:22;6.40;99.90
22145;DHT22;11238;48.730;11.566;2023-12-22T13:21:50;6.30;99.90
22145;DHT22;11238;48.730;11.566;2023-12-22T13:24:17;6.30;99.90
22145;DHT22;11238;48.730;11.566;2023-12-22T13:26:43;6.40;99.90
22145;DHT22;11238;48.730;11.566;2023-12-22T13:29:11;6.30;99.90
22145;DHT22;11238;48.730;11.566;2023-12-22T13:31:38;6.30;99.90
22145;DHT22;11238;48.730;11.566;2023-12-22T13:34:14;6.20;99.90
22145;DHT22;11238;48.730;11.566;2023-12-22T13:36:40;6.20;99.90
22145;DHT22;11238;48.730;11.566;2023-12-22T13:39:08;6.20;99.90
22145;DHT22;11238;48.730;11.566;2023-12-22T13:41:41;6.20;99.90
22145;DHT22;11238;48.730;11.566;2023-12-22T13:44:12;6.10;99.90
22145;DHT22;11238;48.730;11.566;2023-12-22T13:46:38;6.10;99.90
22145;DHT22;11238;48.730;11.566;2023-12-22T13:49:09;6.10;99.90
22145;DHT22;11238;48.730;11.566;2023-12-22T13:51:59;6.00;99.90
22145;DHT22;11238;48.730;11.566;2023-12-22T13:54:32;5.90;99.90
22145;DHT22;11238;48.730;11.566;2023-12-22T13:56:59;5.90;99.90
22145;DHT22;11238;48.730;11.566;2023-12-22T13:59:34;5.80;99.90
22145;DHT22;11238;48.730;11.566;2023-12-22T14:02:01;5.60;99.90
22145;DHT22;11238;48.730;11.566;2023-12-22T14:04:27;5.60;99.90
22145;DHT22;11238;48.730;11.566;2023-12-22T14:06:52;5.60;99.90
22145;DHT22;11238;48.730;11.566;2023-12-22T14:09:18;5.70;99.90
22145;DHT22;11238;48.730;11.566;2023-12-22T14:11:49;5.60;99.90
22145;DHT22;11238;48.730;11.566;2023-12-22T14:14:15;5.70;99.90
22145;DHT22;11238;48.730;11.566;2023-12-22T14:16:42;5.70;99.90
22145;DHT22;11238;48.730;11.566;2023-12-22T14:19:08;5.70;99.90
22145;DHT22;11238;48.730;11.566;2023-12-22T14:21:34;5.70;99.90
22145;DHT22;11238;48.730;11.566;2023-12-22T14:23:59;5.70;99.90
22145;DHT22;11238;48.730;11.566;2023-12-22T14:26:25;5.70;99.90
22145;DHT22;11238;48.730;11.566;2023-12-22T14:28:51;5.70;99.90
22145;DHT22;11238;48.730;11.566;2023-12-22T14:31:19;5.80;99.90
22145;DHT22;11238;48.730;11.566;2023-12-22T14:33:46;5.80;99.90
22145;DHT22;11238;48.730;11.566;2023-12-22T14:36:14;5.80;99.90
22145;DHT22;11238;48.730;11.566;2023-12-22T14:38:40;5.90;99.90
22145;DHT22;11238;48.730;11.566;2023-12-22T14:41:06;6.00;99.90
22145;DHT22;11238;48.730;11.566;2023-12-22T14:43:32;5.90;99.90
22145;DHT22;11238;48.730;11.566;2023-12-22T14:45:57;6.00;99.90
22145;DHT22;11238;48.730;11.566;2023-12-22T14:48:23;6.00;99.90
22145;DHT22;11238;48.730;11.566;2023-12-22T14:50:48;6.00;99.90
22145;DHT22;11238;48.730;11.566;2023-12-22T14:53:14;6.00;99.90
22145;DHT22;11238;48.730;11.566;2023-12-22T14:55:41;6.00;99.90
22145;DHT22;11238;48.730;11.566;2023-12-22T14:58:07;6.00;99.90
22145;DHT22;11238;48.730;11.566;2023-12-22T15:00:35;5.90;99.90
22145;DHT22;11238;48.730;11.566;2023-12-22T15:03:01;5.90;99.90
22145;DHT22;11238;48.730;11.566;2023-12-22T15:05:28;6.00;99.90
22145;DHT22;11238;48.730;11.566;2023-12-22T15:07:55;6.00;99.90
22145;DHT22;11238;48.730;11.566;2023-12-22T15:10:21;6.00;99.90
22145;DHT22;11238;48.730;11.566;2023-12-22T15:12:47;6.10;99.90
22145;DHT22;11238;48.730;11.566;2023-12-22T15:15:13;6.10;99.90
22145;DHT22;11238;48.730;11.566;2023-12-22T15:17:39;6.20;99.90
22145;DHT22;11238;48.730;11.566;2023-12-22T15:20:05;6.20;99.90
22145;DHT22;11238;48.730;11.566;2023-12-22T15:22:32;6.30;99.90
22145;DHT22;11238;48.730;11.566;2023-12-22T15:24:57;6.30;99.90
22145;DHT22;11238;48.730;11.566;2023-12-22T15:27:23;6.30;99.90
22145;DHT22;11238;48.730;11.566;2023-12-22T15:29:49;6.40;99.90
22145;DHT22;11238;48.730;11.566;2023-12-22T15:32:15;6.30;99.90
22145;DHT22;11238;48.730;11.566;2023-12-22T15:34:42;6.40;99.90
22145;DHT22;11238;48.730;11.566;2023-12-22T15:37:08;6.40;99.90
22145;DHT22;11238;48.730;11.566;2023-12-22T15:39:34;6.40;99.90
22145;DHT22;11238;48.730;11.566;2023-12-22T15:42:01;6.40;99.90
22145;DHT22;11238;48.730;11.566;2023-12-22T15:44:27;6.40;99.90
22145;DHT22;11238;48.730;11.566;2023-12-22T15:46:55;6.50;99.90